createdAt,value
2018-05-23T00:00:02.639Z,97579
2018-05-23T00:02:32.703Z,97577
2018-05-23T00:05:02.058Z,97582
2018-05-23T00:07:31.345Z,97585
2018-05-23T00:10:00.667Z,97586
2018-05-23T00:12:30.781Z,97589
2018-05-23T00:15:00.083Z,97585
2018-05-23T00:17:29.487Z,97588
2018-05-23T00:19:58.896Z,97598
2018-05-23T00:22:29.011Z,97588
2018-05-23T00:24:58.415Z,97590
2018-05-23T00:27:27.716Z,97585
2018-05-23T00:29:58.553Z,97582
2018-05-23T00:32:27.953Z,97587
2018-05-23T00:34:58.077Z,97581
2018-05-23T00:37:27.378Z,97583
2018-05-23T00:39:56.781Z,97587
2018-05-23T00:42:26.184Z,97587
2018-05-23T00:44:55.479Z,97579
2018-05-23T00:47:26.323Z,97575
2018-05-23T00:49:56.438Z,97577
2018-05-23T00:52:25.847Z,97579
2018-05-23T00:55:12.964Z,97584
2018-05-23T00:57:42.371Z,97583
2018-05-23T01:00:11.774Z,97590
2018-05-23T01:02:41.184Z,97595
2018-05-23T01:05:11.303Z,97593
2018-05-23T01:07:41.417Z,97603
2018-05-23T01:10:10.823Z,97599
2018-05-23T01:12:40.123Z,97601
2018-05-23T01:15:10.347Z,97595
2018-05-23T01:17:39.652Z,97600
2018-05-23T01:20:09.769Z,97608
2018-05-23T01:22:39.138Z,97609
2018-05-23T01:25:08.473Z,97609
2018-05-23T01:27:37.877Z,97613
2018-05-23T01:30:07.283Z,97626
2018-05-23T01:32:36.581Z,97621
2018-05-23T01:35:05.888Z,97621
2018-05-23T01:37:36.003Z,97623
2018-05-23T01:40:06.125Z,97628
2018-05-23T01:42:36.233Z,97634
2018-05-23T01:45:05.648Z,97636
2018-05-23T01:47:34.939Z,97633
2018-05-23T01:50:04.353Z,97635
2018-05-23T01:52:33.653Z,97626
2018-05-23T01:55:03.058Z,97631
2018-05-23T01:57:32.463Z,97626
2018-05-23T02:00:01.866Z,97620
2018-05-23T02:02:31.268Z,97629
2018-05-23T02:05:00.571Z,97625
2018-05-23T02:07:29.963Z,97630
2018-05-23T02:09:59.275Z,97629
2018-05-23T02:12:29.402Z,97628
2018-05-23T02:14:59.518Z,97624
2018-05-23T02:17:28.921Z,97626
2018-05-23T02:19:59.039Z,97627
2018-05-23T02:22:28.445Z,97635
2018-05-23T02:24:57.851Z,97630
2018-05-23T02:27:27.969Z,97632
2018-05-23T02:29:58.088Z,97635
2018-05-23T02:32:28.168Z,97631
2018-05-23T02:34:57.509Z,97632
2018-05-23T02:37:26.859Z,97634
2018-05-23T02:39:56.214Z,97639
2018-05-23T02:42:26.330Z,97639
2018-05-23T02:44:55.740Z,97639
2018-05-23T02:47:25.961Z,97640
2018-05-23T02:49:55.371Z,97636
2018-05-23T02:52:24.768Z,97635
2018-05-23T02:54:54.158Z,97635
2018-05-23T02:57:23.496Z,97635
2018-05-23T02:59:52.878Z,97635
2018-05-23T03:02:22.996Z,97642
2018-05-23T03:04:52.368Z,97643
2018-05-23T03:07:21.658Z,97639
2018-05-23T03:09:50.944Z,97636
2018-05-23T03:12:20.289Z,97640
2018-05-23T03:14:51.245Z,97642
2018-05-23T03:17:20.646Z,97641
2018-05-23T03:19:50.157Z,97639
2018-05-23T03:22:20.276Z,97649
2018-05-23T03:24:51.112Z,97649
2018-05-23T03:27:20.515Z,97657
2018-05-23T03:29:49.941Z,97663
2018-05-23T03:32:19.330Z,97668
2018-05-23T03:34:49.443Z,97674
2018-05-23T03:37:18.844Z,97681
2018-05-23T03:39:48.149Z,97678
2018-05-23T03:42:17.552Z,97685
2018-05-23T03:44:46.840Z,97684
2018-05-23T03:47:16.101Z,97686
2018-05-23T03:49:45.461Z,97690
2018-05-23T03:52:14.858Z,97700
2018-05-23T03:54:44.263Z,97699
2018-05-23T03:57:13.564Z,97709
2018-05-23T04:00:00.684Z,97717
2018-05-23T04:02:47.747Z,97721
2018-05-23T04:05:34.921Z,97719
2018-05-23T04:08:04.325Z,97725
2018-05-23T04:10:34.644Z,97728
2018-05-23T04:13:03.906Z,97734
2018-05-23T04:15:33.252Z,97738
2018-05-23T04:18:02.555Z,97741
2018-05-23T04:20:32.619Z,97745
2018-05-23T04:23:01.976Z,97751
2018-05-23T04:25:32.083Z,97745
2018-05-23T04:28:01.407Z,97750
2018-05-23T04:30:31.517Z,97750
2018-05-23T04:33:00.819Z,97749
2018-05-23T04:35:30.121Z,97748
2018-05-23T04:37:59.528Z,97752
2018-05-23T04:40:29.644Z,97751
2018-05-23T04:42:59.048Z,97755
2018-05-23T04:45:28.350Z,97753
2018-05-23T04:47:57.755Z,97755
2018-05-23T04:50:27.057Z,97762
2018-05-23T04:52:57.177Z,97766
2018-05-23T04:55:26.469Z,97766
2018-05-23T04:57:55.785Z,97770
2018-05-23T05:00:25.900Z,97768
2018-05-23T05:02:56.121Z,97773
2018-05-23T05:05:25.429Z,97776
2018-05-23T05:07:55.488Z,97780
2018-05-23T05:10:24.844Z,97775
2018-05-23T05:12:54.152Z,97783
2018-05-23T05:15:24.265Z,97784
2018-05-23T05:17:53.558Z,97788
2018-05-23T05:20:24.404Z,97787
2018-05-23T05:22:53.814Z,97790
2018-05-23T05:25:23.929Z,97789
2018-05-23T05:27:53.221Z,97789
2018-05-23T05:30:22.531Z,97789
2018-05-23T05:32:51.927Z,97791
2018-05-23T05:35:21.241Z,97793
2018-05-23T05:37:50.582Z,97795
2018-05-23T05:40:19.886Z,97803
2018-05-23T05:42:54.683Z,97811
2018-05-23T05:45:23.913Z,97815
2018-05-23T05:47:53.272Z,97816
2018-05-23T05:50:22.559Z,97820
2018-05-23T05:52:52.693Z,97821
2018-05-23T05:55:21.990Z,97822
2018-05-23T05:57:51.297Z,97820
2018-05-23T06:00:21.362Z,97825
2018-05-23T06:02:50.665Z,97820
2018-05-23T06:05:19.978Z,97819
2018-05-23T06:07:49.322Z,97822
2018-05-23T06:10:19.434Z,97826
2018-05-23T06:12:48.855Z,97831
2018-05-23T06:15:18.980Z,97835
2018-05-23T06:17:49.086Z,97838
2018-05-23T06:20:18.495Z,97839
2018-05-23T06:22:48.610Z,97847
2018-05-23T06:25:18.013Z,97849
2018-05-23T06:27:47.416Z,97850
2018-05-23T06:30:16.804Z,97849
2018-05-23T06:32:46.124Z,97845
2018-05-23T06:35:16.190Z,97849
2018-05-23T06:37:45.618Z,97851
2018-05-23T06:40:14.846Z,97854
2018-05-23T06:42:44.238Z,97857
2018-05-23T06:45:13.550Z,97860
2018-05-23T06:47:42.839Z,97862
2018-05-23T06:50:12.152Z,97858
2018-05-23T06:52:41.448Z,97862
2018-05-23T06:55:12.298Z,97861
2018-05-23T06:57:42.404Z,97859
2018-05-23T07:00:13.244Z,97866
2018-05-23T07:02:42.658Z,97867
2018-05-23T07:05:12.778Z,97865
2018-05-23T07:07:42.894Z,97862
2018-05-23T07:10:12.237Z,97864
2018-05-23T07:12:41.600Z,97864
2018-05-23T07:15:11.719Z,97871
2018-05-23T07:17:41.070Z,97871
2018-05-23T07:20:10.418Z,97870
2018-05-23T07:22:39.829Z,97870
2018-05-23T07:25:09.888Z,97869
2018-05-23T07:27:39.249Z,97874
2018-05-23T07:30:08.753Z,97876
2018-05-23T07:32:38.047Z,97881
2018-05-23T07:35:07.464Z,97878
2018-05-23T07:37:37.581Z,97875
2018-05-23T07:40:06.984Z,97880
2018-05-23T07:42:37.046Z,97880
2018-05-23T07:45:06.406Z,97891
2018-05-23T07:47:36.528Z,97887
2018-05-23T07:50:06.632Z,97894
2018-05-23T07:52:36.769Z,97898
2018-05-23T07:55:06.170Z,97898
2018-05-23T07:57:35.576Z,97906
2018-05-23T08:00:04.974Z,97909
2018-05-23T08:02:34.284Z,97918
2018-05-23T08:05:04.501Z,97914
2018-05-23T08:07:33.893Z,97916
2018-05-23T08:10:03.207Z,97916
2018-05-23T08:12:32.508Z,97915
2018-05-23T08:15:01.813Z,97915
2018-05-23T08:17:31.929Z,97918
2018-05-23T08:20:01.337Z,97919
2018-05-23T08:22:30.738Z,97916
2018-05-23T08:25:00.141Z,97917
2018-05-23T08:27:30.203Z,97915
2018-05-23T08:29:59.561Z,97914
2018-05-23T08:32:28.863Z,97910
2018-05-23T08:34:58.268Z,97907
2018-05-23T08:37:27.568Z,97898
2018-05-23T08:39:56.872Z,97896
2018-05-23T08:42:26.990Z,97898
2018-05-23T08:44:56.393Z,97902
2018-05-23T08:47:25.797Z,97906
2018-05-23T08:49:55.098Z,97908
2018-05-23T08:52:24.397Z,97912
2018-05-23T08:54:53.701Z,97923
2018-05-23T08:57:23.763Z,97936
2018-05-23T08:59:53.124Z,97941
2018-05-23T09:02:22.525Z,97942
2018-05-23T09:04:52.015Z,97951
2018-05-23T09:07:21.317Z,97956
2018-05-23T09:09:50.636Z,97952
2018-05-23T09:12:19.967Z,97953
2018-05-23T09:14:49.282Z,97957
2018-05-23T09:17:18.640Z,97954
2018-05-23T09:19:47.943Z,97954
2018-05-23T09:22:17.279Z,97953
2018-05-23T09:24:46.490Z,97960
2018-05-23T09:27:15.845Z,97960
2018-05-23T09:29:45.257Z,97963
2018-05-23T09:32:15.451Z,97966
2018-05-23T09:34:44.771Z,97959
2018-05-23T09:37:14.083Z,97960
2018-05-23T09:39:44.195Z,97961
2018-05-23T09:42:13.499Z,97954
2018-05-23T09:44:42.899Z,97945
2018-05-23T09:47:12.303Z,97944
2018-05-23T09:49:41.605Z,97944
2018-05-23T09:52:11.010Z,97956
2018-05-23T09:54:40.311Z,97959
2018-05-23T09:57:10.429Z,97956
2018-05-23T09:59:39.735Z,97957
2018-05-23T10:02:09.851Z,97956
2018-05-23T10:04:39.255Z,97965
2018-05-23T10:07:08.556Z,97957
2018-05-23T10:09:37.962Z,97955
2018-05-23T10:12:07.247Z,97946
2018-05-23T10:14:36.562Z,97945
2018-05-23T10:17:06.688Z,97938
2018-05-23T10:19:36.807Z,97940
2018-05-23T10:22:06.206Z,97944
2018-05-23T10:24:35.501Z,97942
2018-05-23T10:27:04.912Z,97945
2018-05-23T10:29:34.214Z,97948
2018-05-23T10:32:03.617Z,97947
2018-05-23T10:34:32.919Z,97947
2018-05-23T10:37:02.221Z,97950
2018-05-23T10:39:31.620Z,97948
2018-05-23T10:42:00.924Z,97947
2018-05-23T10:44:31.050Z,97942
2018-05-23T10:47:01.166Z,97940
2018-05-23T10:49:30.568Z,97946
2018-05-23T10:52:00.659Z,97946
2018-05-23T10:54:30.096Z,97942
2018-05-23T10:57:00.244Z,97946
2018-05-23T10:59:29.617Z,97949
2018-05-23T11:01:59.022Z,97948
2018-05-23T11:04:28.325Z,97951
2018-05-23T11:06:58.442Z,97948
2018-05-23T11:09:27.743Z,97951
2018-05-23T11:11:57.147Z,97947
2018-05-23T11:14:26.554Z,97945
2018-05-23T11:16:55.954Z,97940
2018-05-23T11:19:25.254Z,97947
2018-05-23T11:21:54.560Z,97945
2018-05-23T11:24:24.676Z,97947
2018-05-23T11:26:54.992Z,97947
2018-05-23T11:29:24.305Z,97942
2018-05-23T11:31:53.698Z,97941
2018-05-23T11:34:23.111Z,97944
2018-05-23T11:36:52.412Z,97942
2018-05-23T11:39:21.713Z,97934
2018-05-23T11:41:51.010Z,97928
2018-05-23T11:44:20.432Z,97930
2018-05-23T11:46:50.539Z,97927
2018-05-23T11:49:19.832Z,97928
2018-05-23T11:51:49.147Z,97925
2018-05-23T11:54:19.263Z,97931
2018-05-23T11:56:48.666Z,97925
2018-05-23T11:59:17.969Z,97928
2018-05-23T12:01:47.335Z,97923
2018-05-23T12:04:16.552Z,97920
2018-05-23T12:06:45.867Z,97915
2018-05-23T12:09:15.274Z,97903
2018-05-23T12:11:44.680Z,97905
2018-05-23T12:14:14.789Z,97899
2018-05-23T12:16:44.159Z,97895
2018-05-23T12:19:13.607Z,97891
2018-05-23T12:21:43.012Z,97888
2018-05-23T12:24:13.130Z,97885
2018-05-23T12:26:42.534Z,97880
2018-05-23T12:29:11.934Z,97875
2018-05-23T12:31:41.238Z,97878
2018-05-23T12:34:10.540Z,97879
2018-05-23T12:36:39.840Z,97874
2018-05-23T12:39:09.246Z,97872
2018-05-23T12:41:38.549Z,97874
2018-05-23T12:44:07.849Z,97878
2018-05-23T12:46:37.251Z,97878
2018-05-23T12:49:06.552Z,97877
2018-05-23T12:51:35.854Z,97879
2018-05-23T12:54:05.256Z,97878
2018-05-23T12:56:34.659Z,97874
2018-05-23T12:59:04.780Z,97870
2018-05-23T13:01:34.185Z,97872
2018-05-23T13:04:03.579Z,97869
2018-05-23T13:06:32.891Z,97871
2018-05-23T13:09:02.293Z,97870
2018-05-23T13:11:31.599Z,97865
2018-05-23T13:14:01.715Z,97863
2018-05-23T13:16:31.017Z,97870
2018-05-23T13:19:01.107Z,97875
2018-05-23T13:21:30.479Z,97875
2018-05-23T13:23:59.846Z,97872
2018-05-23T13:26:29.963Z,97867
2018-05-23T13:28:59.361Z,97860
2018-05-23T13:31:28.768Z,97859
2018-05-23T13:33:58.067Z,97851
2018-05-23T13:36:27.490Z,97848
2018-05-23T13:38:57.684Z,97843
2018-05-23T13:41:26.999Z,97842
2018-05-23T13:43:56.401Z,97838
2018-05-23T13:46:26.519Z,97830
2018-05-23T13:48:55.810Z,97827
2018-05-23T13:51:25.125Z,97823
2018-05-23T13:53:54.527Z,97820
2018-05-23T13:56:23.830Z,97822
2018-05-23T13:58:53.181Z,97816
2018-05-23T14:01:22.534Z,97810
2018-05-23T14:03:52.656Z,97807
2018-05-23T14:06:22.057Z,97812
2018-05-23T14:08:51.300Z,97825
2018-05-23T14:11:20.662Z,97831
2018-05-23T14:13:49.966Z,97824
2018-05-23T14:16:19.311Z,97822
2018-05-23T14:18:48.668Z,97823
2018-05-23T14:21:17.965Z,97819
2018-05-23T14:23:47.271Z,97825
2018-05-23T14:26:16.519Z,97829
2018-05-23T14:28:45.876Z,97860
2018-05-23T14:31:15.273Z,97855
2018-05-23T14:33:44.568Z,97879
2018-05-23T14:36:13.878Z,97886
2018-05-23T14:38:43.174Z,97892
2018-05-23T14:41:12.582Z,97899
2018-05-23T14:43:41.983Z,97924
2018-05-23T14:46:11.292Z,97929
2018-05-23T14:48:41.510Z,97923
2018-05-23T14:51:10.812Z,97930
2018-05-23T14:53:40.113Z,97926
2018-05-23T14:56:09.605Z,97925
2018-05-23T14:58:38.924Z,97923
2018-05-23T15:01:09.043Z,97913
2018-05-23T15:03:38.445Z,97909
2018-05-23T15:06:07.848Z,97914
2018-05-23T15:08:37.240Z,97916
2018-05-23T15:11:06.554Z,97920
2018-05-23T15:13:35.855Z,97916
2018-05-23T15:16:05.258Z,97916
2018-05-23T15:18:35.380Z,97919
2018-05-23T15:21:04.782Z,97927
2018-05-23T15:23:34.277Z,97936
2018-05-23T15:26:03.546Z,97949
2018-05-23T15:28:32.891Z,97970
2018-05-23T15:31:02.132Z,97978
2018-05-23T15:33:31.498Z,97990
2018-05-23T15:36:01.606Z,97986
2018-05-23T15:38:31.020Z,97987
2018-05-23T15:41:01.139Z,97988
2018-05-23T15:43:30.540Z,97986
2018-05-23T15:45:59.989Z,97980
2018-05-23T15:48:29.347Z,97977
2018-05-23T15:50:59.409Z,97979
2018-05-23T15:53:28.771Z,97982
2018-05-23T15:55:58.174Z,97985
2018-05-23T15:58:27.578Z,97984
2018-05-23T16:00:56.985Z,97992
2018-05-23T16:03:27.101Z,97991
2018-05-23T16:05:56.492Z,97992
2018-05-23T16:08:25.808Z,97995
2018-05-23T16:10:55.108Z,97999
2018-05-23T16:13:24.514Z,98007
2018-05-23T16:15:54.632Z,98007
2018-05-23T16:18:23.977Z,98015
2018-05-23T16:20:53.337Z,98019
2018-05-23T16:23:22.684Z,98023
2018-05-23T16:25:52.044Z,98027
2018-05-23T16:28:21.344Z,98035
2018-05-23T16:30:50.749Z,98031
2018-05-23T16:33:20.048Z,98032
2018-05-23T16:35:49.452Z,98033
2018-05-23T16:38:18.744Z,98040
2018-05-23T16:40:48.060Z,98043
2018-05-23T16:43:18.175Z,98040
2018-05-23T16:45:47.579Z,98040
2018-05-23T16:48:16.881Z,98037
2018-05-23T16:50:47.000Z,98032
2018-05-23T16:53:16.355Z,98036
2018-05-23T16:55:45.704Z,98027
2018-05-23T16:58:15.109Z,98028
2018-05-23T17:00:44.410Z,98023
2018-05-23T17:03:13.713Z,98023
2018-05-23T17:05:43.015Z,98027
2018-05-23T17:08:12.416Z,98029
2018-05-23T17:10:42.540Z,98021
2018-05-23T17:13:13.067Z,98027
2018-05-23T17:15:43.289Z,98030
2018-05-23T17:18:13.392Z,98027
2018-05-23T17:20:42.813Z,98021
2018-05-23T17:23:12.113Z,98023
2018-05-23T17:25:41.517Z,98021
2018-05-23T17:28:10.821Z,98018
2018-05-23T17:30:40.880Z,98022
2018-05-23T17:33:10.248Z,98021
2018-05-23T17:35:39.543Z,98020
2018-05-23T17:38:08.946Z,98025
2018-05-23T17:40:38.248Z,98028
2018-05-23T17:43:07.649Z,98027
2018-05-23T17:45:36.940Z,98024
2018-05-23T17:48:06.256Z,98022
2018-05-23T17:50:35.656Z,98027
2018-05-23T17:53:04.957Z,98023
2018-05-23T17:55:35.077Z,98024
2018-05-23T17:58:04.486Z,98023
2018-05-23T18:00:33.882Z,98022
2018-05-23T18:03:04.416Z,98019
2018-05-23T18:05:34.844Z,98014
2018-05-23T18:08:05.332Z,98016
2018-05-23T18:10:35.187Z,98012
2018-05-23T18:13:05.615Z,98014
2018-05-23T18:15:36.042Z,98005
2018-05-23T18:18:06.565Z,98003
2018-05-23T18:20:37.037Z,98002
2018-05-23T18:23:07.324Z,97999
2018-05-23T18:25:37.812Z,97991
2018-05-23T18:28:07.155Z,97992
2018-05-23T18:30:36.463Z,97996
2018-05-23T18:33:06.886Z,98002
2018-05-23T18:35:36.185Z,98000
2018-05-23T18:38:05.489Z,98003
2018-05-23T18:40:34.780Z,98007
2018-05-23T18:43:04.093Z,98006
2018-05-23T18:45:34.154Z,98003
2018-05-23T18:48:03.517Z,98008
2018-05-23T18:50:32.916Z,98003
2018-05-23T18:53:03.036Z,98008
2018-05-23T18:55:33.147Z,98005
2018-05-23T18:58:02.463Z,98004
2018-05-23T19:00:32.577Z,98001
2018-05-23T19:03:01.869Z,97997
2018-05-23T19:05:32.000Z,97996
2018-05-23T19:08:01.402Z,97993
2018-05-23T19:10:30.692Z,97996
2018-05-23T19:13:00.011Z,97996
2018-05-23T19:15:30.072Z,97998
2018-05-23T19:17:59.325Z,98001
2018-05-23T19:20:28.729Z,98008
2018-05-23T19:22:58.850Z,98009
2018-05-23T19:25:28.151Z,98017
2018-05-23T19:27:58.277Z,98023
2018-05-23T19:30:28.391Z,98018
2018-05-23T19:32:58.505Z,98018
2018-05-23T19:35:27.916Z,98017
2018-05-23T19:37:57.211Z,98019
2018-05-23T19:40:26.518Z,98020
2018-05-23T19:42:55.916Z,98023
2018-05-23T19:45:25.223Z,98023
2018-05-23T19:47:54.522Z,98028
2018-05-23T19:50:23.826Z,98025
2018-05-23T19:52:53.247Z,98026
2018-05-23T19:55:23.349Z,98028
2018-05-23T19:57:52.753Z,98028
2018-05-23T20:00:22.158Z,98029
2018-05-23T20:02:51.440Z,98034
2018-05-23T20:05:20.758Z,98030
2018-05-23T20:07:50.081Z,98030
2018-05-23T20:10:19.465Z,98031
2018-05-23T20:12:48.868Z,98029
2018-05-23T20:15:18.272Z,98030
2018-05-23T20:17:47.558Z,98028
2018-05-23T20:20:16.876Z,98032
2018-05-23T20:22:46.174Z,98034
2018-05-23T20:25:15.480Z,98041
2018-05-23T20:27:45.597Z,98041
2018-05-23T20:30:14.899Z,98053
2018-05-23T20:32:44.967Z,98052
2018-05-23T20:35:14.324Z,98055
2018-05-23T20:37:44.440Z,98058
2018-05-23T20:40:13.845Z,98058
2018-05-23T20:42:43.146Z,98059
2018-05-23T20:45:12.552Z,98063
2018-05-23T20:47:41.921Z,98065
2018-05-23T20:50:11.254Z,98060
2018-05-23T20:52:40.550Z,98063
2018-05-23T20:55:09.841Z,98058
2018-05-23T20:57:39.157Z,98061
2018-05-23T21:00:09.272Z,98057
2018-05-23T21:02:38.585Z,98055
2018-05-23T21:05:08.804Z,98055
2018-05-23T21:07:38.105Z,98051
2018-05-23T21:10:08.224Z,98058
2018-05-23T21:12:37.627Z,98063
2018-05-23T21:15:07.031Z,98063
2018-05-23T21:17:36.333Z,98062
2018-05-23T21:20:05.737Z,98058
2018-05-23T21:22:35.861Z,98057
2018-05-23T21:25:05.259Z,98054
2018-05-23T21:27:34.565Z,98055
2018-05-23T21:30:04.786Z,98052
2018-05-23T21:32:34.132Z,98055
2018-05-23T21:35:03.491Z,98054
2018-05-23T21:37:32.892Z,98054
2018-05-23T21:40:02.196Z,98054
2018-05-23T21:42:32.326Z,98051
2018-05-23T21:45:02.434Z,98057
2018-05-23T21:47:31.837Z,98055
2018-05-23T21:50:01.243Z,98052
2018-05-23T21:52:31.364Z,98057
2018-05-23T21:55:00.763Z,98058
2018-05-23T21:57:30.068Z,98051
2018-05-23T21:59:59.472Z,98054
2018-05-23T22:02:28.772Z,98062
2018-05-23T22:04:58.893Z,98053
2018-05-23T22:07:28.293Z,98057
2018-05-23T22:09:58.417Z,98057
2018-05-23T22:12:27.819Z,98058
2018-05-23T22:14:57.111Z,98057
2018-05-23T22:17:26.427Z,98057
2018-05-23T22:19:56.543Z,98057
2018-05-23T22:22:25.947Z,98057
2018-05-23T22:24:55.352Z,98054
2018-05-23T22:27:24.654Z,98057
2018-05-23T22:29:54.728Z,98056
2018-05-23T22:32:24.071Z,98054
2018-05-23T22:34:54.193Z,98055
2018-05-23T22:37:23.495Z,98062
2018-05-23T22:39:52.900Z,98062
2018-05-23T22:42:22.200Z,98063
2018-05-23T22:44:51.502Z,98058
2018-05-23T22:47:21.622Z,98054
2018-05-23T22:49:51.027Z,98058
2018-05-23T22:52:20.430Z,98057
2018-05-23T22:54:49.833Z,98064
2018-05-23T22:57:19.237Z,98061
2018-05-23T22:59:48.538Z,98069
2018-05-23T23:02:18.760Z,98072
2018-05-23T23:04:48.881Z,98074
2018-05-23T23:07:18.287Z,98069
2018-05-23T23:09:48.406Z,98069
2018-05-23T23:12:17.823Z,98070
2018-05-23T23:14:47.932Z,98076
2018-05-23T23:17:17.332Z,98074
2018-05-23T23:19:46.739Z,98074
2018-05-23T23:25:18.620Z,98073
2018-05-23T23:27:48.107Z,98069
2018-05-23T23:30:17.383Z,98075
2018-05-23T23:32:46.728Z,98073
2018-05-23T23:35:16.088Z,98075
2018-05-23T23:37:45.434Z,98074
2018-05-23T23:40:15.542Z,98071
2018-05-23T23:42:44.858Z,98072
2018-05-23T23:45:14.975Z,98072
2018-05-23T23:47:44.379Z,98072
2018-05-23T23:50:13.782Z,98077
2018-05-23T23:52:43.186Z,98078
2018-05-23T23:55:12.487Z,98074
2018-05-23T23:57:41.842Z,98074
